Time;durP1;ratioP1;P1;durP2;ratioP2;P2;SDS_P1;SDS_P2;PMS_P1;PMS_P2;Temp;Humidity;BMP_temperature;BMP_pressure;BME280_temperature;BME280_humidity;BME280_pressure;Samples;Min_cycle;Max_cycle;Signal;HPM_P1;HPM_P2
2022/06/09 00:01:19;;;;;;;35.65;16.77;;;;;;;;;;4949068;28;20047;-72
2022/06/09 00:04:03;;;;;;;28.92;16.23;;;;;;;;;;4964372;28;20043;-73
2022/06/09 00:06:38;;;;;;;32.85;16.60;;;;;;;;;;4970772;28;20586;-73
2022/06/09 00:09:05;;;;;;;31.63;16.95;;;;;;;;;;4967172;28;20063;-71
2022/06/09 00:11:36;;;;;;;32.58;16.90;;;;;;;;;;4975674;28;20077;-72
2022/06/09 00:14:04;;;;;;;31.23;16.02;;;;;;;;;;4969084;28;20051;-72
2022/06/09 00:16:30;;;;;;;33.45;15.18;;;;;;;;;;4971542;28;20046;-72
2022/06/09 00:18:56;;;;;;;23.73;14.30;;;;;;;;;;4964458;28;20054;-72
2022/06/09 00:21:23;;;;;;;27.25;14.25;;;;;;;;;;4962210;28;20450;-72
2022/06/09 00:23:49;;;;;;;26.75;13.80;;;;;;;;;;4965196;28;20047;-72
2022/06/09 00:26:15;;;;;;;26.73;12.98;;;;;;;;;;4971921;28;20049;-71
2022/06/09 00:28:41;;;;;;;26.48;13.05;;;;;;;;;;4977695;28;20054;-72
2022/06/09 00:31:07;;;;;;;26.92;13.05;;;;;;;;;;4974815;28;20054;-72
2022/06/09 00:33:33;;;;;;;31.30;13.13;;;;;;;;;;4967692;28;20464;-72
2022/06/09 00:35:58;;;;;;;27.63;11.95;;;;;;;;;;4971230;28;20063;-70
2022/06/09 00:38:25;;;;;;;28.00;11.05;;;;;;;;;;4972469;28;20094;-72
2022/06/09 00:40:51;;;;;;;20.98;11.45;;;;;;;;;;4970519;28;20516;-71
2022/06/09 00:43:17;;;;;;;22.02;10.20;;;;;;;;;;4970305;28;20051;-72
2022/06/09 00:45:52;;;;;;;24.15;10.82;;;;;;;;;;4971858;28;20043;-71
2022/06/09 00:48:25;;;;;;;16.90;10.02;;;;;;;;;;4970066;28;20171;-71
2022/06/09 00:51:00;;;;;;;16.65;9.48;;;;;;;;;;4970698;28;20050;-70
2022/06/09 00:53:31;;;;;;;18.73;9.68;;;;;;;;;;4969075;28;20050;-70
2022/06/09 00:55:59;;;;;;;19.17;9.95;;;;;;;;;;4968246;28;20057;-71
2022/06/09 00:58:29;;;;;;;19.55;9.60;;;;;;;;;;4970104;28;20062;-69
2022/06/09 01:01:00;;;;;;;16.05;9.25;;;;;;;;;;4967996;28;20051;-71
2022/06/09 01:03:30;;;;;;;14.38;8.65;;;;;;;;;;4962640;28;20046;-70
2022/06/09 01:06:06;;;;;;;17.25;8.90;;;;;;;;;;4962519;28;20055;-70
2022/06/09 01:08:34;;;;;;;16.00;8.40;;;;;;;;;;4962891;28;20133;-72
2022/06/09 01:11:00;;;;;;;19.00;8.05;;;;;;;;;;4966099;28;20046;-71
2022/06/09 01:13:26;;;;;;;19.90;7.43;;;;;;;;;;4968193;28;20046;-71
2022/06/09 01:16:02;;;;;;;13.02;7.05;;;;;;;;;;4968400;28;20446;-69
2022/06/09 01:18:28;;;;;;;14.50;6.78;;;;;;;;;;4959781;28;20039;-70
2022/06/09 01:20:59;;;;;;;10.32;6.53;;;;;;;;;;4956551;28;20436;-71
2022/06/09 01:23:43;;;;;;;14.05;7.15;;;;;;;;;;4964571;28;20433;-71
2022/06/09 01:26:48;;;;;;;11.75;6.30;;;;;;;;;;4967048;28;20051;-70
2022/06/09 01:29:32;;;;;;;13.57;6.97;;;;;;;;;;4956431;28;20047;-71
2022/06/09 01:32:19;;;;;;;11.88;6.32;;;;;;;;;;4961849;28;20047;-70
2022/06/09 01:34:47;;;;;;;15.25;6.65;;;;;;;;;;4967465;28;20053;-69
2022/06/09 01:37:22;;;;;;;15.43;6.68;;;;;;;;;;4966414;28;20094;-71
2022/06/09 01:39:55;;;;;;;11.82;6.35;;;;;;;;;;4961024;28;20517;-68
2022/06/09 01:42:38;;;;;;;16.37;6.40;;;;;;;;;;4958927;28;20043;-71
2022/06/09 01:45:13;;;;;;;10.13;6.30;;;;;;;;;;4967346;28;20290;-71
2022/06/09 01:47:51;;;;;;;12.75;6.18;;;;;;;;;;4964853;28;20305;-72
2022/06/09 01:50:58;;;;;;;15.25;6.80;;;;;;;;;;4968895;28;20052;-70
2022/06/09 01:53:38;;;;;;;12.40;6.78;;;;;;;;;;4956501;28;20050;-70
2022/06/09 01:56:19;;;;;;;14.57;6.63;;;;;;;;;;4965742;28;20062;-71
2022/06/09 01:58:53;;;;;;;20.10;7.90;;;;;;;;;;4965375;28;20053;-72
2022/06/09 02:01:24;;;;;;;11.05;6.93;;;;;;;;;;4968152;28;20441;-70
2022/06/09 02:03:54;;;;;;;10.77;6.38;;;;;;;;;;4972941;28;20373;-69
2022/06/09 02:06:22;;;;;;;14.40;6.95;;;;;;;;;;4963595;28;20444;-71
2022/06/09 02:08:48;;;;;;;13.27;6.55;;;;;;;;;;4967717;28;20043;-70
2022/06/09 02:11:14;;;;;;;14.90;7.25;;;;;;;;;;4968696;28;20063;-70
2022/06/09 02:13:47;;;;;;;16.25;6.68;;;;;;;;;;4966874;28;20534;-70
2022/06/09 02:16:17;;;;;;;14.10;6.82;;;;;;;;;;4970156;28;20106;-69
2022/06/09 02:18:46;;;;;;;14.55;7.00;;;;;;;;;;4969301;28;20054;-72
2022/06/09 02:21:17;;;;;;;14.07;6.70;;;;;;;;;;4973855;28;20189;-71
2022/06/09 02:23:43;;;;;;;14.70;6.60;;;;;;;;;;4969385;28;20059;-72
2022/06/09 02:26:09;;;;;;;12.40;6.10;;;;;;;;;;4970315;28;20051;-70
2022/06/09 02:28:35;;;;;;;13.43;6.60;;;;;;;;;;4963345;28;20054;-70
2022/06/09 02:31:02;;;;;;;11.43;6.10;;;;;;;;;;4973151;28;20125;-70
2022/06/09 02:33:28;;;;;;;12.02;5.50;;;;;;;;;;4969837;28;20104;-71
2022/06/09 02:35:54;;;;;;;15.63;6.10;;;;;;;;;;4970102;28;20126;-71
2022/06/09 02:38:21;;;;;;;11.88;6.15;;;;;;;;;;4965678;28;20035;-70
2022/06/09 02:40:49;;;;;;;13.13;6.00;;;;;;;;;;4968385;28;20515;-69
2022/06/09 02:43:15;;;;;;;11.23;5.85;;;;;;;;;;4969404;28;20039;-70
2022/06/09 02:45:42;;;;;;;17.60;6.10;;;;;;;;;;4966612;28;20125;-71
2022/06/09 02:48:08;;;;;;;16.85;5.30;;;;;;;;;;4964680;28;20054;-68
2022/06/09 02:50:35;;;;;;;17.52;6.03;;;;;;;;;;4968671;28;20047;-69
2022/06/09 02:53:01;;;;;;;12.02;4.90;;;;;;;;;;4968057;28;20050;-71
2022/06/09 02:55:28;;;;;;;9.38;4.35;;;;;;;;;;4967388;28;20057;-71
2022/06/09 02:57:53;;;;;;;15.00;5.07;;;;;;;;;;4968956;28;20189;-69
2022/06/09 03:00:20;;;;;;;8.75;4.55;;;;;;;;;;4960300;28;20618;-70
2022/06/09 03:02:58;;;;;;;12.68;4.70;;;;;;;;;;4966509;28;20052;-70
2022/06/09 03:05:25;;;;;;;13.10;4.35;;;;;;;;;;4967247;28;20469;-70
2022/06/09 03:07:51;;;;;;;11.55;4.30;;;;;;;;;;4963630;28;20055;-71
2022/06/09 03:10:17;;;;;;;11.65;3.97;;;;;;;;;;4967985;28;20047;-70
2022/06/09 03:12:43;;;;;;;13.13;3.85;;;;;;;;;;4966324;28;20046;-70
2022/06/09 03:15:12;;;;;;;7.15;3.85;;;;;;;;;;4967692;28;20058;-69
2022/06/09 03:17:42;;;;;;;9.18;3.88;;;;;;;;;;4967721;28;20141;-70
2022/06/09 03:20:13;;;;;;;8.85;3.75;;;;;;;;;;4962984;28;20189;-71
2022/06/09 03:22:39;;;;;;;8.90;3.90;;;;;;;;;;4965691;28;20049;-72
2022/06/09 03:25:06;;;;;;;10.05;3.97;;;;;;;;;;4971616;28;20366;-74
2022/06/09 03:27:32;;;;;;;11.75;4.18;;;;;;;;;;4970308;28;20118;-70
2022/06/09 03:30:01;;;;;;;9.02;3.50;;;;;;;;;;4965821;28;20047;-70
2022/06/09 03:32:30;;;;;;;11.93;3.92;;;;;;;;;;4965401;28;20078;-69
2022/06/09 03:34:56;;;;;;;11.40;3.80;;;;;;;;;;4964759;28;20042;-70
2022/06/09 03:37:23;;;;;;;10.32;3.60;;;;;;;;;;4966246;28;20045;-70
2022/06/09 03:39:49;;;;;;;7.85;3.33;;;;;;;;;;4965716;28;20701;-69
2022/06/09 03:42:14;;;;;;;11.02;3.50;;;;;;;;;;4966324;28;20062;-72
2022/06/09 03:44:40;;;;;;;12.43;3.47;;;;;;;;;;4964609;28;20043;-69
2022/06/09 03:47:07;;;;;;;9.00;3.75;;;;;;;;;;4963799;28;20078;-71
2022/06/09 03:49:33;;;;;;;13.32;4.75;;;;;;;;;;4965585;28;20350;-70
2022/06/09 03:51:58;;;;;;;10.80;4.00;;;;;;;;;;4966495;28;20043;-70
2022/06/09 03:54:24;;;;;;;6.82;3.25;;;;;;;;;;4965398;28;20047;-70
2022/06/09 03:56:51;;;;;;;12.82;3.55;;;;;;;;;;4965215;28;20050;-71
2022/06/09 03:59:17;;;;;;;8.30;3.40;;;;;;;;;;4966395;28;20359;-70
2022/06/09 04:01:43;;;;;;;9.85;3.47;;;;;;;;;;4965328;28;20112;-69
2022/06/09 04:04:09;;;;;;;8.48;3.30;;;;;;;;;;4971403;28;20051;-72
2022/06/09 04:06:36;;;;;;;14.20;3.88;;;;;;;;;;4979313;28;20062;-71
2022/06/09 04:09:03;;;;;;;10.40;3.90;;;;;;;;;;4970763;28;20050;-70
2022/06/09 04:11:29;;;;;;;10.68;4.45;;;;;;;;;;4969861;28;20085;-70
2022/06/09 04:13:55;;;;;;;12.07;4.95;;;;;;;;;;4976153;28;20563;-71
2022/06/09 04:16:25;;;;;;;10.93;4.65;;;;;;;;;;4963699;28;20803;-70
2022/06/09 04:18:52;;;;;;;8.82;4.35;;;;;;;;;;4966243;28;20259;-71
2022/06/09 04:21:19;;;;;;;13.00;4.47;;;;;;;;;;4962220;28;20489;-73
2022/06/09 04:23:46;;;;;;;11.13;4.55;;;;;;;;;;4964054;28;20501;-69
2022/06/09 04:26:18;;;;;;;9.68;4.05;;;;;;;;;;4971504;28;20038;-69
2022/06/09 04:28:45;;;;;;;11.18;4.35;;;;;;;;;;4969489;28;20601;-71
2022/06/09 04:31:12;;;;;;;11.98;4.60;;;;;;;;;;4960862;28;20047;-70
2022/06/09 04:33:39;;;;;;;10.90;4.03;;;;;;;;;;4967100;28;20137;-69
2022/06/09 04:36:06;;;;;;;10.52;4.25;;;;;;;;;;4969546;28;20492;-69
2022/06/09 04:38:33;;;;;;;7.45;4.25;;;;;;;;;;4967637;28;20118;-72
2022/06/09 04:40:58;;;;;;;7.72;3.75;;;;;;;;;;4964299;28;20051;-67
2022/06/09 04:43:24;;;;;;;7.18;3.67;;;;;;;;;;4966596;28;20049;-71
2022/06/09 04:45:50;;;;;;;10.63;3.90;;;;;;;;;;4965760;28;20047;-71
2022/06/09 04:48:16;;;;;;;9.55;3.83;;;;;;;;;;4966446;28;20050;-69
2022/06/09 04:50:42;;;;;;;13.75;3.70;;;;;;;;;;4970033;28;20381;-72
2022/06/09 04:53:09;;;;;;;11.65;3.60;;;;;;;;;;4972026;28;20061;-70
2022/06/09 04:55:40;;;;;;;10.55;3.30;;;;;;;;;;4968711;28;20101;-73
2022/06/09 04:58:06;;;;;;;10.00;2.88;;;;;;;;;;4964890;28;20049;-70
2022/06/09 05:00:32;;;;;;;12.77;4.72;;;;;;;;;;4970812;28;20055;-70
2022/06/09 05:02:59;;;;;;;16.42;7.20;;;;;;;;;;4964315;28;20070;-71
2022/06/09 05:05:32;;;;;;;22.00;9.35;;;;;;;;;;4967778;28;20045;-71
2022/06/09 05:07:59;;;;;;;19.27;8.88;;;;;;;;;;4967121;28;20054;-72
2022/06/09 05:10:27;;;;;;;19.88;9.10;;;;;;;;;;4959611;28;20038;-69
2022/06/09 05:12:54;;;;;;;23.80;9.63;;;;;;;;;;4968902;28;20057;-71
2022/06/09 05:15:20;;;;;;;22.42;10.48;;;;;;;;;;4968581;28;20047;-71
2022/06/09 05:17:47;;;;;;;18.73;10.40;;;;;;;;;;4971515;28;20058;-70
2022/06/09 05:20:16;;;;;;;20.40;10.73;;;;;;;;;;4960209;28;20039;-68
2022/06/09 05:22:42;;;;;;;19.13;10.18;;;;;;;;;;4966915;28;20078;-71
2022/06/09 05:25:09;;;;;;;24.20;10.90;;;;;;;;;;4966481;28;20077;-70
2022/06/09 05:27:36;;;;;;;19.60;10.35;;;;;;;;;;4971966;28;20050;-70
2022/06/09 05:30:06;;;;;;;19.75;10.20;;;;;;;;;;4974032;28;20188;-70
2022/06/09 05:32:31;;;;;;;22.27;10.48;;;;;;;;;;4965876;28;20459;-72
2022/06/09 05:34:57;;;;;;;20.25;10.45;;;;;;;;;;4970940;28;20543;-71
2022/06/09 05:37:23;;;;;;;20.50;9.93;;;;;;;;;;4977892;28;20072;-72
2022/06/09 05:45:18;;;;;;;;;;;;;;;;;;4970618;28;20050;-69
2022/06/09 05:47:44;;;;;;;24.20;11.00;;;;;;;;;;4969352;28;19926;-72
2022/06/09 05:50:11;;;;;;;20.65;10.95;;;;;;;;;;4968662;28;20488;-71
2022/06/09 05:52:37;;;;;;;18.60;10.40;;;;;;;;;;4980402;28;20051;-70
2022/06/09 05:55:04;;;;;;;22.42;11.18;;;;;;;;;;4968095;28;20492;-72
2022/06/09 05:57:30;;;;;;;18.33;10.85;;;;;;;;;;4970405;28;20082;-70
2022/06/09 05:59:56;;;;;;;21.55;10.73;;;;;;;;;;4967575;28;20548;-71
2022/06/09 06:02:24;;;;;;;27.73;11.38;;;;;;;;;;4970314;28;20046;-71
2022/06/09 06:04:51;;;;;;;18.23;10.45;;;;;;;;;;4965098;28;20042;-69
2022/06/09 06:07:16;;;;;;;25.25;10.73;;;;;;;;;;4957431;28;20050;-71
2022/06/09 06:09:42;;;;;;;21.88;10.98;;;;;;;;;;4962657;28;20047;-71
2022/06/09 06:12:09;;;;;;;24.42;10.80;;;;;;;;;;4962381;28;20045;-71
2022/06/09 06:14:36;;;;;;;20.63;10.35;;;;;;;;;;4964159;28;20047;-70
2022/06/09 06:17:02;;;;;;;19.33;9.85;;;;;;;;;;4965885;28;20501;-69
2022/06/09 06:19:28;;;;;;;19.00;9.55;;;;;;;;;;4966832;28;20046;-69
2022/06/09 06:21:54;;;;;;;19.55;9.27;;;;;;;;;;4966970;28;20043;-67
2022/06/09 06:24:23;;;;;;;16.75;8.15;;;;;;;;;;4963721;28;20042;-71
2022/06/09 06:26:49;;;;;;;17.10;9.10;;;;;;;;;;4959236;28;20051;-70
2022/06/09 06:29:20;;;;;;;14.77;7.65;;;;;;;;;;4961359;28;20436;-69
2022/06/09 06:31:46;;;;;;;14.73;7.90;;;;;;;;;;4968608;28;20427;-70
2022/06/09 06:34:12;;;;;;;17.73;8.32;;;;;;;;;;4972762;28;20540;-68
2022/06/09 06:36:38;;;;;;;19.23;8.27;;;;;;;;;;4965450;28;20062;-69
2022/06/09 06:39:05;;;;;;;18.15;6.90;;;;;;;;;;4969791;28;20046;-71
2022/06/09 06:41:30;;;;;;;17.33;6.93;;;;;;;;;;4968678;28;20132;-73
2022/06/09 06:43:56;;;;;;;16.50;6.57;;;;;;;;;;4970496;28;20117;-68
2022/06/09 06:46:23;;;;;;;17.45;6.60;;;;;;;;;;4964257;28;20047;-70
2022/06/09 06:48:49;;;;;;;13.25;5.72;;;;;;;;;;4959119;28;20042;-69
2022/06/09 06:51:15;;;;;;;16.83;5.75;;;;;;;;;;4967635;28;20053;-68
2022/06/09 06:53:42;;;;;;;11.73;4.78;;;;;;;;;;4969721;28;20050;-69
2022/06/09 06:56:09;;;;;;;9.57;4.53;;;;;;;;;;4968666;28;20121;-70
2022/06/09 06:58:35;;;;;;;11.70;5.03;;;;;;;;;;4958501;28;20051;-70
2022/06/09 07:01:03;;;;;;;10.48;4.22;;;;;;;;;;4965419;28;20064;-71
2022/06/09 07:03:31;;;;;;;13.65;4.85;;;;;;;;;;4967550;28;20035;-68
2022/06/09 07:05:58;;;;;;;10.55;4.65;;;;;;;;;;4957403;28;20039;-71
2022/06/09 07:08:24;;;;;;;10.63;4.00;;;;;;;;;;4957527;28;20051;-70
2022/06/09 07:10:52;;;;;;;10.35;3.40;;;;;;;;;;4962503;28;20078;-68
2022/06/09 07:13:18;;;;;;;8.82;3.30;;;;;;;;;;4959270;28;20150;-70
2022/06/09 07:15:44;;;;;;;6.35;2.47;;;;;;;;;;4958126;28;20047;-69
2022/06/09 07:18:10;;;;;;;10.50;3.17;;;;;;;;;;4968465;28;20085;-68
2022/06/09 07:20:39;;;;;;;10.90;3.53;;;;;;;;;;4957652;28;20057;-67
2022/06/09 07:23:05;;;;;;;10.68;3.28;;;;;;;;;;4953052;28;20066;-69
2022/06/09 07:25:31;;;;;;;8.20;2.92;;;;;;;;;;4963496;28;20042;-68
2022/06/09 07:27:57;;;;;;;14.25;3.28;;;;;;;;;;4959585;28;20133;-68
2022/06/09 07:30:26;;;;;;;6.63;2.60;;;;;;;;;;4956591;28;20469;-69
2022/06/09 07:32:53;;;;;;;11.30;2.67;;;;;;;;;;4965248;28;20061;-68
2022/06/09 07:35:28;;;;;;;7.75;2.72;;;;;;;;;;4962309;28;20047;-70
2022/06/09 07:37:55;;;;;;;10.32;2.90;;;;;;;;;;4968264;28;20444;-66
2022/06/09 07:40:21;;;;;;;7.47;2.83;;;;;;;;;;4964115;28;20053;-66
2022/06/09 07:42:48;;;;;;;9.60;2.90;;;;;;;;;;4967966;28;20043;-69
2022/06/09 07:45:14;;;;;;;9.77;3.35;;;;;;;;;;4969209;28;20534;-68
2022/06/09 07:47:41;;;;;;;6.68;3.03;;;;;;;;;;4960272;28;20051;-71
2022/06/09 07:50:08;;;;;;;10.77;2.78;;;;;;;;;;4958631;28;20733;-68
2022/06/09 07:52:35;;;;;;;7.80;2.72;;;;;;;;;;4965001;28;20059;-68
2022/06/09 07:55:01;;;;;;;12.10;2.80;;;;;;;;;;4960308;28;20485;-72
2022/06/09 07:57:26;;;;;;;11.32;2.90;;;;;;;;;;4956613;28;20071;-73
2022/06/09 07:59:52;;;;;;;14.32;2.95;;;;;;;;;;4975561;28;20051;-71
2022/06/09 08:02:18;;;;;;;17.25;3.03;;;;;;;;;;4969866;28;20051;-66
2022/06/09 08:04:44;;;;;;;10.23;3.13;;;;;;;;;;4971058;28;20043;-70
2022/06/09 08:07:10;;;;;;;10.07;2.70;;;;;;;;;;4971399;28;20444;-69
2022/06/09 08:09:36;;;;;;;9.40;3.05;;;;;;;;;;4971483;28;20039;-70
2022/06/09 08:12:03;;;;;;;8.52;2.50;;;;;;;;;;4973061;28;20058;-71
2022/06/09 08:14:29;;;;;;;8.60;2.60;;;;;;;;;;4968958;28;20059;-68
2022/06/09 08:16:55;;;;;;;7.15;2.58;;;;;;;;;;4968512;28;20508;-69
2022/06/09 08:19:21;;;;;;;7.97;2.75;;;;;;;;;;4965643;28;20070;-70
2022/06/09 08:21:47;;;;;;;8.15;2.40;;;;;;;;;;4967249;28;20061;-72
2022/06/09 08:24:14;;;;;;;13.95;3.15;;;;;;;;;;4967130;28;20117;-73
2022/06/09 08:26:40;;;;;;;6.65;3.03;;;;;;;;;;4966260;28;20051;-70
2022/06/09 08:29:06;;;;;;;7.25;3.22;;;;;;;;;;4964777;28;20693;-69
2022/06/09 08:31:32;;;;;;;9.32;2.72;;;;;;;;;;4966275;28;20100;-73
2022/06/09 08:33:58;;;;;;;10.88;2.50;;;;;;;;;;4967369;28;20047;-70
2022/06/09 08:36:24;;;;;;;7.07;2.47;;;;;;;;;;4967326;28;20073;-70
2022/06/09 08:38:49;;;;;;;10.25;2.75;;;;;;;;;;4967434;28;20404;-69
2022/06/09 08:41:29;;;;;;;5.43;2.40;;;;;;;;;;4967121;28;20043;-69
2022/06/09 08:44:23;;;;;;;6.55;2.78;;;;;;;;;;4967894;28;20560;-69
2022/06/09 08:47:07;;;;;;;7.40;2.40;;;;;;;;;;4969651;28;20459;-70
2022/06/09 08:50:05;;;;;;;12.02;2.40;;;;;;;;;;4970670;28;20057;-72
2022/06/09 08:53:04;;;;;;;7.40;2.05;;;;;;;;;;4966871;28;20070;-68
2022/06/09 08:55:49;;;;;;;11.80;2.72;;;;;;;;;;4971239;28;20050;-69
2022/06/09 08:58:18;;;;;;;7.88;2.53;;;;;;;;;;4971067;28;20448;-69
2022/06/09 09:00:57;;;;;;;9.00;2.90;;;;;;;;;;4969626;28;20135;-70
2022/06/09 09:03:31;;;;;;;7.25;2.85;;;;;;;;;;4959315;28;20053;-70
2022/06/09 09:06:09;;;;;;;8.02;2.92;;;;;;;;;;4969915;28;20051;-70
2022/06/09 09:08:36;;;;;;;6.22;2.63;;;;;;;;;;4970134;28;20225;-70
2022/06/09 09:11:17;;;;;;;7.20;2.97;;;;;;;;;;4970521;28;20133;-70
2022/06/09 09:13:59;;;;;;;10.75;2.88;;;;;;;;;;4971558;28;20117;-70
2022/06/09 09:16:30;;;;;;;10.65;2.90;;;;;;;;;;4969676;28;20054;-69
2022/06/09 09:19:22;;;;;;;11.02;3.10;;;;;;;;;;4970005;28;20051;-70
2022/06/09 09:21:51;;;;;;;9.63;3.00;;;;;;;;;;4969626;28;20097;-70
2022/06/09 09:24:32;;;;;;;8.30;2.90;;;;;;;;;;4970622;28;20050;-70
2022/06/09 09:27:24;;;;;;;12.07;4.13;;;;;;;;;;4967473;28;20070;-70
2022/06/09 09:30:27;;;;;;;8.70;3.22;;;;;;;;;;4969967;28;20433;-69
2022/06/09 09:32:55;;;;;;;10.20;3.20;;;;;;;;;;4967514;28;20413;-68
2022/06/09 09:35:23;;;;;;;6.93;3.10;;;;;;;;;;4970007;28;20519;-69
2022/06/09 09:37:52;;;;;;;7.65;2.95;;;;;;;;;;4969158;28;20054;-71
2022/06/09 09:40:28;;;;;;;16.23;2.85;;;;;;;;;;4969716;28;20038;-70
2022/06/09 09:42:57;;;;;;;10.00;2.70;;;;;;;;;;4969969;28;20336;-69
2022/06/09 09:45:38;;;;;;;5.30;2.10;;;;;;;;;;4969783;28;20042;-70
2022/06/09 09:48:24;;;;;;;12.10;2.60;;;;;;;;;;4963644;28;20145;-72
2022/06/09 09:51:00;;;;;;;5.47;2.33;;;;;;;;;;4967776;28;20487;-70
2022/06/09 09:53:31;;;;;;;9.80;2.38;;;;;;;;;;4969949;28;20051;-71
2022/06/09 09:56:13;;;;;;;11.05;2.33;;;;;;;;;;4968466;28;20054;-71
2022/06/09 09:58:48;;;;;;;7.93;2.30;;;;;;;;;;4968884;28;20059;-71
2022/06/09 10:01:17;;;;;;;5.63;2.05;;;;;;;;;;4968747;28;20050;-70
2022/06/09 10:09:54;;;;;;;6.47;2.50;;;;;;;;;;4955010;28;20066;-72
2022/06/09 10:12:23;;;;;;;10.60;2.28;;;;;;;;;;4968889;28;20054;-73
2022/06/09 10:14:52;;;;;;;11.60;2.10;;;;;;;;;;4969384;28;20356;-70
2022/06/09 10:17:32;;;;;;;4.70;1.98;;;;;;;;;;4968731;28;20057;-72
2022/06/09 10:20:04;;;;;;;6.03;2.10;;;;;;;;;;4970936;28;20061;-70
2022/06/09 10:22:34;;;;;;;6.13;2.22;;;;;;;;;;4968936;28;20057;-71
2022/06/09 10:25:12;;;;;;;6.25;1.88;;;;;;;;;;4967224;28;20256;-70
2022/06/09 10:27:41;;;;;;;5.22;1.77;;;;;;;;;;4969535;28;20051;-73
2022/06/09 10:30:11;;;;;;;4.75;1.85;;;;;;;;;;4969424;28;21648;-70
2022/06/09 10:32:49;;;;;;;11.13;2.20;;;;;;;;;;4968757;28;20054;-70
2022/06/09 10:35:42;;;;;;;6.95;1.80;;;;;;;;;;4968896;28;20489;-72
2022/06/09 10:38:30;;;;;;;6.25;2.10;;;;;;;;;;4968941;28;20574;-71
2022/06/09 10:41:00;;;;;;;7.10;1.92;;;;;;;;;;4958939;28;20448;-71
2022/06/09 10:43:56;;;;;;;11.75;1.88;;;;;;;;;;4965619;28;20050;-71
2022/06/09 10:46:25;;;;;;;7.25;1.58;;;;;;;;;;4969929;28;20045;-71
2022/06/09 10:55:14;;;;;;;11.00;2.35;;;;;;;;;;4968614;28;20420;-71
2022/06/09 10:57:51;;;;;;;19.50;2.40;;;;;;;;;;4968552;28;20129;-70
2022/06/09 11:00:24;;;;;;;7.68;2.38;;;;;;;;;;4968195;28;20047;-74
2022/06/09 11:02:54;;;;;;;8.95;2.10;;;;;;;;;;4966872;28;20046;-70
2022/06/09 11:05:28;;;;;;;13.35;2.20;;;;;;;;;;4967846;28;20444;-71
2022/06/09 11:08:28;;;;;;;5.18;2.17;;;;;;;;;;4967248;28;20047;-71
2022/06/09 11:11:05;;;;;;;7.95;2.60;;;;;;;;;;4967604;28;20632;-72
2022/06/09 11:13:42;;;;;;;8.25;2.55;;;;;;;;;;4968228;28;20047;-71
2022/06/09 11:16:23;;;;;;;9.10;3.15;;;;;;;;;;4968053;28;20039;-70
2022/06/09 11:19:29;;;;;;;5.97;2.67;;;;;;;;;;4968362;28;20146;-74
2022/06/09 11:22:19;;;;;;;16.92;2.63;;;;;;;;;;4966833;28;20120;-72
2022/06/09 11:24:59;;;;;;;9.20;2.63;;;;;;;;;;4960070;28;20055;-71
2022/06/09 11:28:03;;;;;;;11.10;2.97;;;;;;;;;;4968443;28;20046;-71
2022/06/09 11:30:32;;;;;;;6.80;2.40;;;;;;;;;;4892096;29;20048;-72
2022/06/09 11:33:12;;;;;;;7.80;2.25;;;;;;;;;;4915633;29;20052;-71
2022/06/09 11:35:48;;;;;;;9.32;1.95;;;;;;;;;;4907203;29;20051;-72
2022/06/09 11:38:14;;;;;;;9.40;1.90;;;;;;;;;;4907809;29;20044;-71
2022/06/09 11:40:46;;;;;;;9.57;2.17;;;;;;;;;;4906980;29;20466;-70
2022/06/09 11:43:41;;;;;;;8.23;2.78;;;;;;;;;;4908385;29;20086;-70
2022/06/09 11:46:18;;;;;;;12.27;2.83;;;;;;;;;;4897589;29;20064;-70
2022/06/09 11:48:48;;;;;;;6.57;2.40;;;;;;;;;;4905933;29;20052;-73
2022/06/09 11:51:22;;;;;;;15.07;2.85;;;;;;;;;;4906549;29;20055;-73
2022/06/09 11:53:51;;;;;;;15.32;2.40;;;;;;;;;;4902616;29;20067;-72
2022/06/09 11:56:43;;;;;;;12.05;3.03;;;;;;;;;;4909209;29;20056;-72
2022/06/09 11:59:22;;;;;;;9.88;2.47;;;;;;;;;;4907684;29;20054;-72
2022/06/09 12:02:01;;;;;;;10.10;2.20;;;;;;;;;;4901471;29;20075;-70
2022/06/09 12:04:42;;;;;;;12.15;2.05;;;;;;;;;;4903277;29;20557;-72
2022/06/09 12:07:31;;;;;;;10.57;2.08;;;;;;;;;;4960014;28;20054;-73
2022/06/09 12:10:23;;;;;;;10.88;2.15;;;;;;;;;;4960733;28;20141;-70
2022/06/09 12:13:25;;;;;;;9.48;2.50;;;;;;;;;;4933281;28;20497;-70
2022/06/09 12:16:03;;;;;;;14.45;2.47;;;;;;;;;;4961686;28;20325;-72
2022/06/09 12:18:45;;;;;;;17.17;2.47;;;;;;;;;;4957806;28;20109;-71
2022/06/09 12:21:33;;;;;;;8.27;1.92;;;;;;;;;;4960323;28;20129;-72
2022/06/09 12:24:14;;;;;;;11.13;2.17;;;;;;;;;;4970020;28;20051;-71
2022/06/09 12:26:40;;;;;;;13.73;2.55;;;;;;;;;;4970473;28;20042;-71
2022/06/09 12:29:30;;;;;;;5.88;2.05;;;;;;;;;;4976029;28;20651;-72
2022/06/09 12:32:08;;;;;;;5.55;1.77;;;;;;;;;;4976075;28;20069;-74
2022/06/09 12:34:40;;;;;;;7.95;2.28;;;;;;;;;;4973291;28;20059;-71
2022/06/09 12:37:15;;;;;;;10.40;2.50;;;;;;;;;;4971753;28;20053;-72
2022/06/09 12:39:47;;;;;;;7.68;2.25;;;;;;;;;;4973165;28;20055;-72
2022/06/09 12:42:27;;;;;;;10.93;2.50;;;;;;;;;;4972226;28;20116;-71
2022/06/09 12:45:12;;;;;;;7.22;2.40;;;;;;;;;;4970647;28;20495;-71
2022/06/09 12:47:52;;;;;;;8.00;1.80;;;;;;;;;;4969871;28;20089;-73
2022/06/09 12:50:44;;;;;;;6.88;1.40;;;;;;;;;;4971390;28;20050;-71
2022/06/09 12:53:21;;;;;;;5.45;1.75;;;;;;;;;;4968993;28;20082;-74
2022/06/09 12:55:57;;;;;;;7.13;1.40;;;;;;;;;;4974449;28;20050;-71
2022/06/09 12:58:31;;;;;;;5.00;1.20;;;;;;;;;;4971410;28;20416;-71
2022/06/09 13:01:02;;;;;;;3.15;1.17;;;;;;;;;;4970980;28;20055;-70
2022/06/09 13:03:40;;;;;;;5.55;1.30;;;;;;;;;;4971241;28;20491;-71
2022/06/09 13:06:27;;;;;;;4.03;1.38;;;;;;;;;;4969538;28;20362;-71
2022/06/09 13:09:15;;;;;;;6.30;1.00;;;;;;;;;;4974329;28;20082;-69
2022/06/09 13:14:32;;;;;;;5.10;1.30;;;;;;;;;;4966611;28;20051;-69
2022/06/09 13:17:06;;;;;;;2.55;1.08;;;;;;;;;;4970281;28;20050;-73
2022/06/09 13:19:34;;;;;;;3.92;1.90;;;;;;;;;;4970006;28;20145;-71
2022/06/09 13:22:05;;;;;;;5.38;1.23;;;;;;;;;;4963205;28;20494;-73
2022/06/09 13:24:36;;;;;;;3.60;1.10;;;;;;;;;;4969899;28;20046;-72
2022/06/09 13:27:10;;;;;;;3.83;1.15;;;;;;;;;;4970968;28;20408;-73
2022/06/09 13:29:40;;;;;;;6.75;1.27;;;;;;;;;;4965689;28;20097;-72
2022/06/09 13:32:41;;;;;;;11.73;1.33;;;;;;;;;;4961934;28;20049;-73
2022/06/09 13:35:37;;;;;;;4.10;1.17;;;;;;;;;;4959001;28;20433;-70
2022/06/09 13:38:31;;;;;;;4.78;1.30;;;;;;;;;;4963684;28;20043;-72
2022/06/09 13:41:11;;;;;;;5.60;1.17;;;;;;;;;;4963862;28;20125;-72
2022/06/09 13:43:48;;;;;;;9.73;1.63;;;;;;;;;;4961360;28;20051;-72
2022/06/09 13:46:21;;;;;;;4.35;1.10;;;;;;;;;;4966616;28;20054;-71
2022/06/09 13:48:47;;;;;;;;;;;;;;;;;;4957468;28;20140;-72
2022/06/09 13:51:25;;;;;;;11.52;1.30;;;;;;;;;;4957955;28;19926;-72
2022/06/09 13:54:07;;;;;;;3.70;1.10;;;;;;;;;;4967545;28;20055;-70
2022/06/09 13:56:34;;;;;;;5.18;1.13;;;;;;;;;;4967806;28;20134;-72
2022/06/09 13:59:00;;;;;;;5.72;1.17;;;;;;;;;;4961670;28;20046;-73
2022/06/09 14:01:26;;;;;;;4.78;1.15;;;;;;;;;;4958042;28;20059;-72
2022/06/09 14:03:53;;;;;;;2.83;1.25;;;;;;;;;;4969142;28;20058;-71
2022/06/09 14:06:22;;;;;;;4.72;1.30;;;;;;;;;;4964860;28;20051;-70
2022/06/09 14:08:51;;;;;;;4.35;1.40;;;;;;;;;;4966640;28;20039;-73
2022/06/09 14:11:23;;;;;;;8.43;1.27;;;;;;;;;;4959841;28;20111;-71
2022/06/09 14:13:53;;;;;;;5.35;1.40;;;;;;;;;;4967688;28;20047;-71
2022/06/09 14:16:23;;;;;;;6.57;1.48;;;;;;;;;;4969299;28;20050;-71
2022/06/09 14:18:50;;;;;;;3.55;1.05;;;;;;;;;;4963851;28;20074;-71
2022/06/09 14:21:15;;;;;;;8.63;1.35;;;;;;;;;;4965195;28;20427;-70
2022/06/09 14:23:41;;;;;;;3.53;1.20;;;;;;;;;;4959260;28;20492;-72
2022/06/09 14:26:17;;;;;;;3.88;1.35;;;;;;;;;;4959557;28;20074;-71
2022/06/09 14:28:43;;;;;;;3.33;1.70;;;;;;;;;;4959741;28;20047;-70
2022/06/09 14:31:13;;;;;;;5.30;1.40;;;;;;;;;;4960267;28;20058;-72
2022/06/09 14:33:39;;;;;;;7.63;1.60;;;;;;;;;;4957309;28;20054;-70
2022/06/09 14:36:06;;;;;;;5.53;1.35;;;;;;;;;;4965506;28;20072;-74
2022/06/09 14:38:33;;;;;;;3.22;1.30;;;;;;;;;;4963257;28;20121;-72
2022/06/09 14:40:59;;;;;;;5.28;1.38;;;;;;;;;;4960880;28;20047;-73
2022/06/09 14:43:24;;;;;;;3.78;1.30;;;;;;;;;;4965087;28;20073;-75
2022/06/09 14:45:55;;;;;;;3.08;1.20;;;;;;;;;;4955547;28;20047;-70
2022/06/09 14:48:23;;;;;;;5.20;1.60;;;;;;;;;;4964598;28;20077;-71
2022/06/09 14:50:53;;;;;;;5.60;1.40;;;;;;;;;;4962293;28;20159;-72
2022/06/09 14:53:20;;;;;;;15.80;3.22;;;;;;;;;;4968932;28;20058;-72
2022/06/09 14:55:47;;;;;;;7.57;2.58;;;;;;;;;;4965095;28;20057;-72
2022/06/09 14:58:16;;;;;;;6.20;1.42;;;;;;;;;;4968685;28;20038;-69
2022/06/09 15:00:43;;;;;;;5.43;1.65;;;;;;;;;;4968067;28;20149;-72
2022/06/09 15:03:10;;;;;;;8.60;1.92;;;;;;;;;;4967638;28;20158;-71
2022/06/09 15:05:36;;;;;;;6.18;1.80;;;;;;;;;;4960034;28;20045;-72
2022/06/09 15:08:03;;;;;;;5.68;1.38;;;;;;;;;;4967871;28;20476;-71
2022/06/09 15:10:33;;;;;;;4.78;1.30;;;;;;;;;;4968779;28;20050;-71
2022/06/09 15:12:59;;;;;;;6.18;1.50;;;;;;;;;;4968474;28;20335;-72
2022/06/09 15:15:27;;;;;;;7.60;1.17;;;;;;;;;;4967003;28;20693;-74
2022/06/09 15:17:53;;;;;;;4.10;1.20;;;;;;;;;;4969470;28;20047;-70
2022/06/09 15:20:24;;;;;;;5.53;1.33;;;;;;;;;;4966142;28;20527;-72